createdAt,value
2018-09-21T00:03:37.774Z,93.10
2018-09-21T00:08:42.290Z,93.30
2018-09-21T00:13:46.778Z,93.40
2018-09-21T00:18:50.830Z,93.60
2018-09-21T00:23:54.014Z,93.60
2018-09-21T00:28:57.282Z,93.60
2018-09-21T00:34:00.454Z,93.90
2018-09-21T00:39:05.587Z,93.90
2018-09-21T00:44:08.831Z,93.90
2018-09-21T00:49:12.038Z,94.10
2018-09-21T00:54:15.231Z,94.00
2018-09-21T00:59:18.411Z,94.00
2018-09-21T01:04:21.586Z,94.00
2018-09-21T01:09:24.779Z,94.10
2018-09-21T01:14:28.026Z,94.20
2018-09-21T01:19:31.279Z,94.40
2018-09-21T01:24:34.525Z,94.50
2018-09-21T01:29:37.794Z,94.50
2018-09-21T01:34:41.010Z,94.60
2018-09-21T01:39:44.230Z,94.70
2018-09-21T01:44:47.466Z,94.70
2018-09-21T01:49:50.678Z,94.80
2018-09-21T01:54:53.983Z,94.80
2018-09-21T01:59:57.275Z,95.00
2018-09-21T02:05:00.478Z,95.00
2018-09-21T02:10:03.726Z,95.10
2018-09-21T02:15:06.970Z,95.20
2018-09-21T02:20:10.220Z,95.30
2018-09-21T02:25:13.442Z,95.60
2018-09-21T02:30:16.682Z,95.90
2018-09-21T02:35:19.915Z,95.60
2018-09-21T02:40:23.122Z,95.60
2018-09-21T02:45:26.351Z,95.60
2018-09-21T02:50:29.610Z,95.50
2018-09-21T02:55:32.834Z,95.50
2018-09-21T03:00:36.123Z,95.50
2018-09-21T03:05:39.342Z,95.60
2018-09-21T03:10:42.545Z,95.50
2018-09-21T03:15:45.794Z,95.40
2018-09-21T03:20:49.099Z,95.40
2018-09-21T03:25:52.415Z,95.40
2018-09-21T03:30:55.714Z,95.40
2018-09-21T03:35:58.928Z,95.10
2018-09-21T03:41:02.203Z,95.10
2018-09-21T03:46:05.743Z,95.00
2018-09-21T03:51:08.962Z,95.00
2018-09-21T03:56:12.193Z,94.90
2018-09-21T04:01:15.483Z,94.90
2018-09-21T04:06:18.741Z,94.80
2018-09-21T04:11:21.967Z,94.60
2018-09-21T04:16:25.203Z,94.40
2018-09-21T04:21:28.482Z,94.30
2018-09-21T04:26:31.694Z,94.00
2018-09-21T04:31:34.881Z,94.10
2018-09-21T04:36:38.071Z,94.10
2018-09-21T04:41:41.310Z,94.20
2018-09-21T04:46:44.503Z,94.30
2018-09-21T04:51:47.774Z,94.30
2018-09-21T04:56:50.973Z,94.50
2018-09-21T05:01:54.200Z,94.60
2018-09-21T05:06:57.397Z,94.80
2018-09-21T05:12:00.570Z,94.80
2018-09-21T05:17:04.158Z,95.20
2018-09-21T05:22:09.025Z,95.00
2018-09-21T05:27:12.246Z,95.20
2018-09-21T05:32:15.466Z,95.30
2018-09-21T05:37:18.684Z,95.30
2018-09-21T05:42:21.922Z,95.50
2018-09-21T05:47:25.223Z,95.50
2018-09-21T05:52:28.446Z,95.70
2018-09-21T05:57:31.670Z,95.80
2018-09-21T06:02:35.151Z,96.00
2018-09-21T06:07:38.447Z,96.10
2018-09-21T06:12:41.642Z,96.30
2018-09-21T06:17:44.858Z,96.40
2018-09-21T06:22:48.164Z,96.40
2018-09-21T06:27:51.417Z,96.40
2018-09-21T06:32:54.735Z,96.60
2018-09-21T06:37:57.919Z,96.60
2018-09-21T06:43:01.138Z,96.50
2018-09-21T06:48:04.353Z,96.50
2018-09-21T06:53:07.569Z,96.30
2018-09-21T06:58:10.786Z,96.20
2018-09-21T07:03:14.008Z,96.00
2018-09-21T07:08:17.192Z,95.80
2018-09-21T07:13:20.474Z,95.80
2018-09-21T07:18:23.695Z,95.70
2018-09-21T07:23:26.928Z,95.70
2018-09-21T07:28:30.521Z,95.60
2018-09-21T07:33:33.767Z,95.50
2018-09-21T07:38:37.044Z,95.40
2018-09-21T07:43:40.289Z,95.20
2018-09-21T07:48:43.576Z,95.40
2018-09-21T07:53:47.790Z,95.20
2018-09-21T07:58:51.043Z,95.20
2018-09-21T08:03:54.305Z,94.80
2018-09-21T08:08:57.544Z,95.10
2018-09-21T08:14:00.782Z,95.20
2018-09-21T08:19:04.346Z,96.20
2018-09-21T08:24:07.553Z,97.00
2018-09-21T08:29:10.837Z,97.30
2018-09-21T08:34:14.090Z,96.70
2018-09-21T08:39:17.355Z,96.20
2018-09-21T08:44:20.570Z,97.10
2018-09-21T08:49:23.911Z,98.50
2018-09-21T08:54:27.158Z,98.90
2018-09-21T08:59:30.361Z,99.10
2018-09-21T09:04:34.425Z,99.90
2018-09-21T09:09:37.667Z,99.90
2018-09-21T09:14:40.918Z,99.90
2018-09-21T09:19:44.163Z,99.90
2018-09-21T09:24:47.390Z,99.90
2018-09-21T09:29:50.659Z,99.90
2018-09-21T09:34:53.887Z,99.90
2018-09-21T09:39:57.247Z,99.90
2018-09-21T09:45:00.519Z,99.90
2018-09-21T09:50:07.378Z,99.90
2018-09-21T09:55:10.586Z,99.90
2018-09-21T10:00:13.774Z,99.90
2018-09-21T10:05:16.983Z,99.90
2018-09-21T10:10:20.317Z,99.90
2018-09-21T10:15:23.514Z,99.90
2018-09-21T10:20:26.730Z,99.90
2018-09-21T10:25:30.406Z,99.90
2018-09-21T10:30:33.602Z,99.90
2018-09-21T10:35:37.048Z,99.90
2018-09-21T10:40:40.234Z,99.90
2018-09-21T10:45:43.468Z,99.90
2018-09-21T10:50:46.751Z,99.90
2018-09-21T10:55:50.005Z,99.90
2018-09-21T11:00:55.716Z,99.90
2018-09-21T11:06:00.435Z,99.90
2018-09-21T11:11:03.760Z,99.90
2018-09-21T11:16:06.993Z,99.90
2018-09-21T11:21:10.216Z,99.90
2018-09-21T11:26:13.502Z,99.90
2018-09-21T11:31:16.751Z,99.90
2018-09-21T11:36:20.618Z,99.90
2018-09-21T11:41:23.818Z,99.90
2018-09-21T11:46:27.510Z,99.90
2018-09-21T11:51:32.543Z,99.90
2018-09-21T11:56:39.966Z,99.90
2018-09-21T12:01:47.520Z,99.90
2018-09-21T12:06:51.018Z,99.90
2018-09-21T12:11:54.286Z,99.90
2018-09-21T12:16:58.557Z,99.90
2018-09-21T12:22:01.803Z,99.90
2018-09-21T12:27:04.979Z,99.90
2018-09-21T12:32:08.231Z,99.90
2018-09-21T12:37:11.551Z,99.90
2018-09-21T12:42:14.879Z,99.90
2018-09-21T12:47:23.830Z,99.90
2018-09-21T12:52:28.138Z,99.90
2018-09-21T12:57:31.371Z,99.90
2018-09-21T13:02:34.612Z,99.90
2018-09-21T13:07:38.919Z,99.90
2018-09-21T13:12:43.387Z,99.90
2018-09-21T13:17:47.010Z,99.90
2018-09-21T13:22:50.286Z,99.90
2018-09-21T13:27:53.567Z,99.90
2018-09-21T13:32:56.941Z,98.70
2018-09-21T13:38:00.651Z,98.20
2018-09-21T13:43:03.874Z,97.30
2018-09-21T13:48:07.097Z,97.20
2018-09-21T13:53:10.366Z,96.40
2018-09-21T13:58:13.546Z,96.80
2018-09-21T14:03:16.885Z,95.40
2018-09-21T14:08:20.403Z,95.40
2018-09-21T14:13:24.723Z,94.50
2018-09-21T14:18:28.012Z,95.80
2018-09-21T14:23:32.239Z,95.60
2018-09-21T14:28:35.701Z,96.00
2018-09-21T14:33:38.970Z,95.30
2018-09-21T14:38:42.206Z,94.90
2018-09-21T14:43:45.619Z,95.30
2018-09-21T14:48:48.918Z,93.80
2018-09-21T14:53:52.150Z,91.10
2018-09-21T14:58:55.526Z,90.10
2018-09-21T15:03:58.786Z,90.00
2018-09-21T15:09:02.066Z,88.40
2018-09-21T15:14:05.413Z,90.90
2018-09-21T15:19:09.144Z,88.00
2018-09-21T15:24:12.416Z,89.80
2018-09-21T15:29:15.648Z,88.20
2018-09-21T15:34:20.962Z,89.60
2018-09-21T15:39:25.235Z,87.50
2018-09-21T15:44:28.505Z,89.30
2018-09-21T15:49:32.845Z,89.90
2018-09-21T15:54:40.472Z,90.80
2018-09-21T16:00:02.939Z,91.00
2018-09-21T16:05:06.346Z,91.60
2018-09-21T16:10:09.761Z,92.20
2018-09-21T16:15:12.978Z,92.40
2018-09-21T16:20:16.207Z,91.50
2018-09-21T16:25:19.462Z,91.00
2018-09-21T16:30:25.994Z,91.00
2018-09-21T16:35:30.440Z,90.60
2018-09-21T16:40:33.700Z,87.90
2018-09-21T16:45:38.247Z,83.80
2018-09-21T16:56:00.299Z,82.90
2018-09-21T17:01:05.359Z,82.70
2018-09-21T17:06:09.236Z,82.90
2018-09-21T17:11:12.583Z,81.60
2018-09-21T17:16:15.858Z,79.60
2018-09-21T17:21:19.201Z,78.70
2018-09-21T17:26:22.573Z,81.00
2018-09-21T17:31:26.058Z,81.40
2018-09-21T17:36:34.145Z,80.70
2018-09-21T17:41:37.483Z,81.70
2018-09-21T17:46:40.873Z,81.90
2018-09-21T17:51:44.190Z,81.70
2018-09-21T17:56:47.480Z,83.80
2018-09-21T18:01:50.730Z,82.50
2018-09-21T18:06:54.414Z,83.40
2018-09-21T18:11:58.494Z,83.00
2018-09-21T18:17:01.780Z,85.50
2018-09-21T18:22:09.721Z,84.80
2018-09-21T18:27:13.006Z,84.60
2018-09-21T18:32:16.258Z,85.10
2018-09-21T18:37:19.540Z,85.60
2018-09-21T18:42:22.830Z,85.80
2018-09-21T18:47:26.085Z,85.70
2018-09-21T18:52:29.338Z,87.50
2018-09-21T18:57:32.582Z,90.80
2018-09-21T19:02:35.823Z,90.80
2018-09-21T19:07:39.070Z,90.80
2018-09-21T19:12:42.343Z,90.90
2018-09-21T19:17:46.215Z,90.60
2018-09-21T19:22:49.461Z,90.60
2018-09-21T19:27:52.779Z,90.70
2018-09-21T19:32:56.085Z,90.50
2018-09-21T19:37:59.233Z,90.50
2018-09-21T19:43:02.583Z,91.10
2018-09-21T19:48:06.012Z,91.10
2018-09-21T19:53:09.258Z,91.60
2018-09-21T19:58:12.435Z,91.40
2018-09-21T20:03:19.390Z,91.70
2018-09-21T20:08:22.613Z,92.00
2018-09-21T20:13:25.957Z,93.70
2018-09-21T20:18:29.202Z,93.40
2018-09-21T20:23:43.034Z,93.50
2018-09-21T20:28:46.306Z,93.30
2018-09-21T20:33:49.540Z,92.80
2018-09-21T20:38:52.853Z,93.00
2018-09-21T20:43:56.186Z,92.70
2018-09-21T20:48:59.519Z,92.50
2018-09-21T20:54:02.839Z,92.50
2018-09-21T20:59:06.048Z,93.00
2018-09-21T21:04:09.342Z,93.30
2018-09-21T21:09:12.594Z,92.50
2018-09-21T21:14:16.006Z,92.40
2018-09-21T21:19:19.250Z,92.50
2018-09-21T21:24:22.536Z,92.40
2018-09-21T21:29:25.728Z,92.60
2018-09-21T21:34:28.973Z,92.90
2018-09-21T21:39:32.230Z,93.30
2018-09-21T21:44:36.568Z,93.40
2018-09-21T21:49:39.831Z,93.60
2018-09-21T21:54:43.066Z,93.70
2018-09-21T21:59:46.291Z,94.00
2018-09-21T22:04:49.546Z,94.20
2018-09-21T22:09:52.770Z,94.70
2018-09-21T22:14:56.065Z,94.80
2018-09-21T22:19:59.369Z,95.20
2018-09-21T22:25:02.574Z,95.30
2018-09-21T22:30:05.965Z,95.50
2018-09-21T22:35:09.198Z,95.90
2018-09-21T22:40:12.450Z,96.10
2018-09-21T22:45:15.741Z,96.30
2018-09-21T22:50:18.914Z,96.70
2018-09-21T22:55:22.150Z,96.80
2018-09-21T23:00:25.454Z,97.40
2018-09-21T23:05:28.702Z,99.90
2018-09-21T23:10:31.973Z,99.90
2018-09-21T23:15:35.214Z,99.90
2018-09-21T23:20:38.460Z,99.90
2018-09-21T23:25:41.688Z,99.90
2018-09-21T23:30:50.054Z,99.90
2018-09-21T23:35:53.254Z,99.90
2018-09-21T23:40:56.476Z,99.90
2018-09-21T23:45:59.755Z,99.90
2018-09-21T23:51:02.954Z,99.90
2018-09-21T23:56:06.282Z,99.90
